Redford, Missouri
Current Conditions -  °F | °C
As of 10:55 AM on Friday 24 Oct 2014 (Local Time) from KFAM Reporting Station
Broken Clouds Broken Clouds  
Wind Chill: 63°   Ceiling: 1900
Heat Index: 63°   Visibility: 10mi
Dew Point: 54°   Wind: 0mph
Humidity: 72%   Direction: NA
Pressure: 30.15"   Gusts: NA
Location:  37.32°N, 90.9°W
Report Text: KFAM 241555Z AUTO 00000KT 10SM BKN019 17/12 A3015 RMK AO1
Loading
Personal Weather Stations






























Interactive Weather Map
Tropical Storm Tracking
New forecast layout! Learn more

10-Day Weather Forecast

Advertisements
Track Severe Weather on mobile